Time;durP1;ratioP1;P1;durP2;ratioP2;P2;SDS_P1;SDS_P2;PMS_P1;PMS_P2;Temp;Humidity;BMP_temperature;BMP_pressure;BME280_temperature;BME280_humidity;BME280_pressure;Samples;Min_cycle;Max_cycle;Signal;HPM_P1;HPM_P2
2021/10/19 00:02:13;;;;;;;14.85;8.60;;;;;;;7.41;100.00;101880.19;4965974;28;20507;-75
2021/10/19 00:04:38;;;;;;;14.13;8.80;;;;;;;7.51;100.00;101883.88;4934044;28;20086;-75
2021/10/19 00:07:04;;;;;;;13.07;8.98;;;;;;;7.51;100.00;101883.06;4951224;28;20154;-71
2021/10/19 00:09:29;;;;;;;13.43;9.52;;;;;;;7.53;100.00;101881.19;4928733;28;20042;-70
2021/10/19 00:11:55;;;;;;;16.20;9.85;;;;;;;7.54;100.00;101875.88;4966145;28;20393;-76
2021/10/19 00:14:20;;;;;;;15.30;9.77;;;;;;;7.59;100.00;101867.72;4960839;28;20121;-72
2021/10/19 00:16:46;;;;;;;12.88;9.18;;;;;;;7.67;100.00;101875.91;4949053;28;20424;-75
2021/10/19 00:19:11;;;;;;;17.73;11.00;;;;;;;7.73;100.00;101872.06;4935991;28;20035;-75
2021/10/19 00:21:37;;;;;;;15.48;10.07;;;;;;;7.79;100.00;101874.25;4936413;28;20086;-74
2021/10/19 00:24:03;;;;;;;18.23;10.50;;;;;;;7.83;100.00;101877.50;4977374;28;20039;-74
2021/10/19 00:26:28;;;;;;;15.13;10.07;;;;;;;7.89;100.00;101879.72;4929693;28;20046;-75
2021/10/19 00:28:54;;;;;;;15.05;9.93;;;;;;;7.91;100.00;101893.50;4953781;28;20034;-74
2021/10/19 00:31:19;;;;;;;15.13;10.30;;;;;;;7.90;100.00;101887.47;4941698;28;20539;-73
2021/10/19 00:33:45;;;;;;;14.30;9.63;;;;;;;7.94;100.00;101894.16;4936895;28;20027;-74
2021/10/19 00:36:11;;;;;;;14.20;10.13;;;;;;;7.98;100.00;101892.19;4936526;28;20039;-75
2021/10/19 00:38:36;;;;;;;16.48;9.63;;;;;;;8.03;100.00;101895.31;4950353;28;20492;-72
2021/10/19 00:41:02;;;;;;;19.20;10.52;;;;;;;8.05;100.00;101893.44;4932510;29;20401;-75
2021/10/19 00:43:27;;;;;;;17.50;9.27;;;;;;;8.09;100.00;101879.22;4935247;28;20590;-74
2021/10/19 00:45:54;;;;;;;18.08;10.63;;;;;;;8.15;100.00;101870.97;4968139;28;20117;-75
2021/10/19 00:48:21;;;;;;;18.50;11.10;;;;;;;8.14;100.00;101871.09;4950193;28;20141;-74
2021/10/19 00:50:46;;;;;;;16.85;10.23;;;;;;;8.15;100.00;101868.34;4960596;28;20822;-75
2021/10/19 00:53:15;;;;;;;15.80;10.05;;;;;;;8.18;100.00;101872.56;4970114;28;20066;-74
2021/10/19 00:55:41;;;;;;;18.85;10.27;;;;;;;8.19;100.00;101871.59;4967663;28;20042;-75
2021/10/19 00:58:07;;;;;;;17.85;10.57;;;;;;;8.19;100.00;101864.63;4967686;28;20031;-74
2021/10/19 01:00:33;;;;;;;16.00;10.55;;;;;;;8.20;100.00;101855.00;4965463;28;20042;-74
2021/10/19 01:02:59;;;;;;;15.88;10.82;;;;;;;8.25;100.00;101854.66;4941343;28;20041;-74
2021/10/19 01:05:24;;;;;;;18.13;10.73;;;;;;;8.25;100.00;101846.84;4968324;28;20056;-73
2021/10/19 01:07:50;;;;;;;17.92;11.52;;;;;;;8.22;100.00;101845.28;4967497;28;20035;-75
2021/10/19 01:10:16;;;;;;;18.60;11.00;;;;;;;8.19;100.00;101835.00;4958732;28;20053;-76
2021/10/19 01:12:42;;;;;;;14.98;10.90;;;;;;;8.29;100.00;101843.91;4943057;29;20094;-75
2021/10/19 01:15:13;;;;;;;17.00;10.77;;;;;;;8.23;100.00;101840.88;4950915;28;20119;-75
2021/10/19 01:17:43;;;;;;;17.35;11.88;;;;;;;8.21;100.00;101842.75;4952080;28;20031;-75
2021/10/19 01:20:20;;;;;;;15.32;11.02;;;;;;;8.16;100.00;101845.69;4966998;28;20030;-75
2021/10/19 01:22:45;;;;;;;19.50;11.77;;;;;;;8.13;100.00;101849.34;4941737;28;20606;-75
2021/10/19 01:25:16;;;;;;;20.45;11.48;;;;;;;8.16;100.00;101856.16;4930031;29;20042;-75
2021/10/19 01:27:46;;;;;;;18.38;11.35;;;;;;;8.22;100.00;101855.72;4932256;28;20504;-75
2021/10/19 01:30:12;;;;;;;17.80;11.13;;;;;;;8.21;100.00;101858.44;4963453;28;20082;-74
2021/10/19 01:32:37;;;;;;;19.60;12.00;;;;;;;8.21;100.00;101851.44;4937596;28;20038;-74
2021/10/19 01:35:04;;;;;;;18.90;11.38;;;;;;;8.23;100.00;101846.97;4935826;28;20693;-75
2021/10/19 01:37:29;;;;;;;19.42;12.38;;;;;;;8.26;100.00;101856.38;4968551;28;20117;-74
2021/10/19 01:39:55;;;;;;;17.65;11.70;;;;;;;8.26;100.00;101851.97;4950663;28;20138;-75
2021/10/19 01:42:20;;;;;;;21.42;12.25;;;;;;;8.30;100.00;101844.75;4948358;28;20117;-76
2021/10/19 01:44:46;;;;;;;19.92;12.43;;;;;;;8.31;100.00;101846.44;4933983;28;20046;-74
2021/10/19 01:47:11;;;;;;;21.42;13.05;;;;;;;8.29;100.00;101851.75;4964227;28;20080;-75
2021/10/19 01:49:37;;;;;;;17.40;12.02;;;;;;;8.28;100.00;101850.06;4936097;28;20104;-75
2021/10/19 01:52:03;;;;;;;18.45;12.25;;;;;;;8.27;100.00;101845.81;4920466;29;20070;-74
2021/10/19 01:54:29;;;;;;;18.20;12.43;;;;;;;8.28;100.00;101844.84;4938108;28;20043;-72
2021/10/19 01:56:54;;;;;;;21.65;13.43;;;;;;;8.33;100.00;101844.56;4935322;28;20034;-72
2021/10/19 01:59:20;;;;;;;17.13;11.90;;;;;;;8.30;100.00;101836.91;4954752;28;20031;-74
2021/10/19 02:01:45;;;;;;;18.75;11.95;;;;;;;8.29;100.00;101828.25;4935434;28;20305;-73
2021/10/19 02:04:11;;;;;;;19.42;12.93;;;;;;;8.31;100.00;101828.13;4909696;28;20039;-71
2021/10/19 02:06:36;;;;;;;23.20;13.95;;;;;;;8.32;100.00;101828.00;4983775;28;20121;-75
2021/10/19 02:09:02;;;;;;;18.38;11.70;;;;;;;8.38;100.00;101835.47;4950522;28;20030;-74
2021/10/19 02:11:29;;;;;;;20.08;12.75;;;;;;;8.37;100.00;101822.47;4962160;28;20396;-71
2021/10/19 02:13:54;;;;;;;22.98;12.50;;;;;;;8.37;100.00;101807.63;4950825;28;20128;-75
2021/10/19 02:16:20;;;;;;;21.10;12.73;;;;;;;8.36;100.00;101810.34;4952693;28;20648;-75
2021/10/19 02:18:45;;;;;;;21.10;13.68;;;;;;;8.33;100.00;101798.31;4941333;28;20051;-74
2021/10/19 02:21:11;;;;;;;22.08;13.55;;;;;;;8.32;100.00;101801.88;4946199;28;20555;-75
2021/10/19 02:23:36;;;;;;;19.40;12.65;;;;;;;8.36;100.00;101803.34;4935345;28;20035;-75
2021/10/19 02:26:02;;;;;;;21.05;13.25;;;;;;;8.36;100.00;101802.50;4968211;28;20082;-72
2021/10/19 02:28:27;;;;;;;20.85;13.63;;;;;;;8.38;100.00;101796.25;4954915;28;20095;-76
2021/10/19 02:30:53;;;;;;;21.40;14.07;;;;;;;8.38;100.00;101782.31;4951127;28;20065;-74
2021/10/19 02:33:19;;;;;;;22.55;13.40;;;;;;;8.47;100.00;101780.88;4936678;28;20389;-71
2021/10/19 02:35:45;;;;;;;21.25;13.77;;;;;;;8.52;100.00;101784.84;4951166;28;20501;-72
2021/10/19 02:38:10;;;;;;;22.10;14.23;;;;;;;8.58;100.00;101766.09;4945136;29;20123;-75
2021/10/19 02:40:36;;;;;;;24.05;13.95;;;;;;;8.64;100.00;101761.38;4945160;28;20035;-74
2021/10/19 02:43:01;;;;;;;23.08;14.50;;;;;;;8.68;100.00;101747.13;4959535;28;20054;-75
2021/10/19 02:45:27;;;;;;;23.52;14.80;;;;;;;8.74;100.00;101736.25;4947688;28;20069;-75
2021/10/19 02:47:52;;;;;;;24.63;14.48;;;;;;;8.77;100.00;101743.88;4927659;29;20101;-75
2021/10/19 02:50:18;;;;;;;25.67;15.93;;;;;;;8.80;100.00;101746.28;4932918;28;20058;-73
2021/10/19 02:52:43;;;;;;;26.40;15.27;;;;;;;8.81;100.00;101750.53;4926718;28;20034;-73
2021/10/19 02:55:12;;;;;;;24.27;14.95;;;;;;;8.86;100.00;101745.81;4934746;28;20045;-74
2021/10/19 02:57:39;;;;;;;25.23;15.20;;;;;;;8.84;100.00;101739.03;4941913;29;20042;-73
2021/10/19 03:00:06;;;;;;;26.10;15.32;;;;;;;8.80;100.00;101733.19;4950019;28;20049;-75
2021/10/19 03:02:34;;;;;;;24.67;15.05;;;;;;;8.77;100.00;101730.78;4935609;28;20073;-75
2021/10/19 03:05:00;;;;;;;22.40;14.75;;;;;;;8.76;100.00;101729.97;4911971;29;20039;-75
2021/10/19 03:07:25;;;;;;;22.45;14.43;;;;;;;8.76;100.00;101732.56;4941240;28;20503;-74
2021/10/19 03:09:51;;;;;;;23.67;14.95;;;;;;;8.73;100.00;101730.16;4939067;28;20046;-72
2021/10/19 03:12:16;;;;;;;24.08;15.43;;;;;;;8.73;100.00;101729.34;4935115;28;20528;-75
2021/10/19 03:14:42;;;;;;;22.85;15.18;;;;;;;8.63;100.00;101718.72;4943915;28;20502;-74
2021/10/19 03:17:07;;;;;;;23.48;14.27;;;;;;;8.58;100.00;101724.25;4949772;28;20081;-72
2021/10/19 03:19:32;;;;;;;23.63;14.13;;;;;;;8.51;100.00;101725.66;4964108;28;20031;-75
2021/10/19 03:21:58;;;;;;;24.20;14.60;;;;;;;8.47;100.00;101734.63;4934175;28;20039;-75
2021/10/19 03:24:23;;;;;;;22.08;14.15;;;;;;;8.42;100.00;101726.31;4934541;28;20049;-72
2021/10/19 03:26:49;;;;;;;23.08;14.55;;;;;;;8.41;100.00;101729.00;4935275;28;20049;-75
2021/10/19 03:29:14;;;;;;;28.08;15.07;;;;;;;8.39;100.00;101729.91;4950966;28;20051;-75
2021/10/19 03:31:40;;;;;;;24.25;14.45;;;;;;;8.41;100.00;101745.50;4934818;28;20093;-73
2021/10/19 03:34:06;;;;;;;26.75;15.40;;;;;;;8.41;100.00;101744.69;4949241;28;20042;-75
2021/10/19 03:36:31;;;;;;;25.80;14.50;;;;;;;8.37;100.00;101749.28;4950469;28;20047;-74
2021/10/19 03:38:57;;;;;;;23.85;14.50;;;;;;;8.37;100.00;101742.25;4915918;29;20043;-75
2021/10/19 03:41:23;;;;;;;26.60;14.93;;;;;;;8.39;100.00;101736.94;4924298;29;20559;-72
2021/10/19 03:43:48;;;;;;;25.15;15.57;;;;;;;8.45;100.00;101739.13;4953193;28;20508;-75
2021/10/19 03:46:14;;;;;;;27.88;15.02;;;;;;;8.45;100.00;101731.28;4964614;28;20106;-74
2021/10/19 03:48:39;;;;;;;25.42;15.85;;;;;;;8.48;100.00;101732.88;4954045;28;20078;-73
2021/10/19 03:51:04;;;;;;;22.02;15.10;;;;;;;8.51;100.00;101749.19;4938760;28;20488;-75
2021/10/19 03:53:30;;;;;;;26.95;15.98;;;;;;;8.56;100.00;101743.63;4953842;28;20035;-73
2021/10/19 03:55:56;;;;;;;23.52;15.02;;;;;;;8.60;100.00;101742.44;4955271;28;20110;-74
2021/10/19 03:58:23;;;;;;;21.80;14.38;;;;;;;8.63;100.00;101741.41;4953168;28;20035;-72
2021/10/19 04:00:49;;;;;;;22.90;14.98;;;;;;;8.65;100.00;101742.97;4958294;28;20249;-73
2021/10/19 04:03:15;;;;;;;26.95;16.67;;;;;;;8.67;100.00;101743.69;4961315;28;20114;-74
2021/10/19 04:05:41;;;;;;;22.88;15.13;;;;;;;8.66;100.00;101749.03;4934188;28;20035;-74
2021/10/19 04:08:07;;;;;;;28.65;15.20;;;;;;;8.65;100.00;101745.59;4923037;28;20034;-73
2021/10/19 04:10:32;;;;;;;33.65;15.88;;;;;;;8.66;100.00;101747.25;4938705;28;20049;-74
2021/10/19 04:12:58;;;;;;;25.85;16.13;;;;;;;8.67;100.00;101741.06;4953995;28;20039;-74
2021/10/19 04:15:23;;;;;;;26.02;16.17;;;;;;;8.70;100.00;101745.25;4932276;28;20038;-74
2021/10/19 04:17:49;;;;;;;27.70;16.30;;;;;;;8.73;100.00;101747.66;4954111;28;20515;-74
2021/10/19 04:20:14;;;;;;;27.17;16.45;;;;;;;8.76;100.00;101748.28;4971867;28;20085;-73
2021/10/19 04:22:40;;;;;;;27.38;17.08;;;;;;;8.78;100.00;101756.00;4938056;28;20035;-73
2021/10/19 04:25:06;;;;;;;25.52;16.98;;;;;;;8.76;100.00;101755.28;4953929;28;20129;-74
2021/10/19 04:27:33;;;;;;;27.17;16.17;;;;;;;8.79;100.00;101749.81;4953789;28;20038;-74
2021/10/19 04:29:59;;;;;;;27.50;16.85;;;;;;;8.81;100.00;101742.69;4971532;28;20034;-73
2021/10/19 04:32:24;;;;;;;29.23;17.42;;;;;;;8.83;100.00;101740.78;4953756;28;20034;-74
2021/10/19 04:34:50;;;;;;;26.85;17.27;;;;;;;8.85;100.00;101735.47;4941334;28;20408;-74
2021/10/19 04:37:16;;;;;;;27.80;17.27;;;;;;;8.86;100.00;101737.16;4957084;28;20126;-75
2021/10/19 04:39:42;;;;;;;28.77;17.45;;;;;;;8.88;100.00;101732.63;4955745;28;20481;-75
2021/10/19 04:42:08;;;;;;;32.53;16.85;;;;;;;8.91;100.00;101729.78;4970950;28;20034;-73
2021/10/19 04:44:33;;;;;;;26.98;17.13;;;;;;;8.93;100.00;101723.50;4966100;28;20618;-74
2021/10/19 04:46:59;;;;;;;30.85;17.60;;;;;;;8.93;100.00;101731.34;4953279;28;20113;-74
2021/10/19 04:49:24;;;;;;;28.58;17.83;;;;;;;9.04;100.00;101721.88;4953201;28;20162;-74
2021/10/19 04:51:50;;;;;;;28.70;18.02;;;;;;;9.05;100.00;101719.16;4945106;28;20134;-74
2021/10/19 04:54:15;;;;;;;31.92;18.25;;;;;;;9.05;100.00;101719.16;4958056;28;20351;-74
2021/10/19 04:56:41;;;;;;;28.95;17.70;;;;;;;9.10;100.00;101724.88;4935370;29;20039;-73
2021/10/19 04:59:08;;;;;;;30.42;17.90;;;;;;;9.12;100.00;101722.16;4939128;29;20043;-74
2021/10/19 05:01:34;;;;;;;28.73;18.00;;;;;;;9.12;100.00;101714.31;4963362;28;20041;-73
2021/10/19 05:04:00;;;;;;;27.30;17.92;;;;;;;9.19;100.00;101712.06;4937842;28;20065;-75
2021/10/19 05:06:25;;;;;;;24.35;16.67;;;;;;;9.18;100.00;101703.38;4960255;28;20145;-75
2021/10/19 05:08:51;;;;;;;29.20;18.05;;;;;;;9.23;100.00;101714.34;4935769;28;20031;-74
2021/10/19 05:11:17;;;;;;;29.65;18.40;;;;;;;9.26;100.00;101715.91;4934863;29;20035;-75
2021/10/19 05:13:42;;;;;;;30.98;18.52;;;;;;;9.29;100.00;101713.88;4933616;29;20114;-74
2021/10/19 05:16:08;;;;;;;26.77;17.23;;;;;;;9.29;100.00;101695.56;4918733;28;20165;-73
2021/10/19 05:18:33;;;;;;;27.40;17.15;;;;;;;9.30;100.00;101685.91;4934235;28;20839;-73
2021/10/19 05:21:00;;;;;;;30.38;18.15;;;;;;;9.35;100.00;101692.47;4964156;28;20039;-75
2021/10/19 05:23:26;;;;;;;31.98;18.60;;;;;;;9.37;100.00;101686.31;4914742;29;20095;-75
2021/10/19 05:25:51;;;;;;;28.67;18.73;;;;;;;9.37;100.00;101692.38;4946383;28;20225;-75
2021/10/19 05:28:17;;;;;;;30.02;18.85;;;;;;;9.37;100.00;101678.44;4941480;28;20378;-74
2021/10/19 05:30:43;;;;;;;28.73;17.52;;;;;;;9.43;100.00;101676.19;4929221;28;20070;-75
2021/10/19 05:33:09;;;;;;;30.17;18.02;;;;;;;9.42;100.00;101671.91;4968318;28;20566;-75
2021/10/19 05:35:34;;;;;;;28.63;17.52;;;;;;;9.44;100.00;101650.84;4939612;28;20035;-75
2021/10/19 05:38:00;;;;;;;30.70;18.75;;;;;;;9.47;100.00;101666.31;4941591;29;20043;-74
2021/10/19 05:40:26;;;;;;;29.90;18.02;;;;;;;9.44;100.00;101659.53;4917219;29;20047;-73
2021/10/19 05:42:52;;;;;;;29.95;18.67;;;;;;;9.51;100.00;101663.34;4951203;28;20050;-75
2021/10/19 05:45:18;;;;;;;25.70;18.20;;;;;;;9.54;100.00;101667.50;4958159;28;20501;-77
2021/10/19 05:47:46;;;;;;;29.45;19.45;;;;;;;9.56;100.00;101660.38;4945345;28;20038;-74
2021/10/19 05:50:14;;;;;;;29.83;18.15;;;;;;;9.61;100.00;101666.09;4941218;28;20045;-72
2021/10/19 05:52:41;;;;;;;29.83;17.90;;;;;;;9.63;100.00;101663.38;4951904;28;20405;-73
2021/10/19 05:55:09;;;;;;;30.33;17.60;;;;;;;9.66;100.00;101668.34;4951786;28;20034;-74
2021/10/19 05:57:38;;;;;;;28.65;17.95;;;;;;;9.66;100.00;101665.75;4950486;28;20050;-74
2021/10/19 06:00:05;;;;;;;30.48;17.70;;;;;;;9.72;100.00;101670.53;4940383;28;20034;-75
2021/10/19 06:02:37;;;;;;;27.15;17.85;;;;;;;9.71;100.00;101668.84;4970321;28;20039;-73
2021/10/19 06:05:04;;;;;;;27.63;17.73;;;;;;;9.81;100.00;101676.81;4968559;28;20035;-73
2021/10/19 06:07:29;;;;;;;28.42;17.50;;;;;;;9.83;100.00;101664.44;4934778;28;20173;-70
2021/10/19 06:09:55;;;;;;;28.10;18.20;;;;;;;9.82;100.00;101666.22;4967254;28;20110;-73
2021/10/19 06:12:20;;;;;;;29.23;18.05;;;;;;;9.81;100.00;101667.16;4934080;28;20103;-75
2021/10/19 06:14:46;;;;;;;26.58;16.92;;;;;;;9.82;100.00;101658.38;4954011;28;20606;-75
2021/10/19 06:17:11;;;;;;;27.58;18.35;;;;;;;9.80;100.00;101659.44;4986608;28;20065;-73
2021/10/19 06:19:37;;;;;;;30.05;18.33;;;;;;;9.77;100.00;101655.25;4954323;28;20070;-75
2021/10/19 06:22:03;;;;;;;29.90;18.58;;;;;;;9.81;100.00;101648.00;4919876;28;20097;-75
2021/10/19 06:24:28;;;;;;;31.40;18.70;;;;;;;9.81;100.00;101651.44;4937995;28;20141;-74
2021/10/19 06:26:54;;;;;;;27.70;18.90;;;;;;;9.85;100.00;101652.91;4967971;28;20038;-75
2021/10/19 06:29:20;;;;;;;27.73;18.95;;;;;;;9.83;100.00;101664.44;4934317;28;20039;-74
2021/10/19 06:31:45;;;;;;;28.90;18.23;;;;;;;9.85;100.00;101663.38;4956318;28;20042;-76
2021/10/19 06:34:11;;;;;;;33.35;18.35;;;;;;;9.90;100.00;101668.25;4960837;28;20519;-75
2021/10/19 06:36:37;;;;;;;29.98;19.25;;;;;;;9.87;100.00;101666.72;4949923;28;20504;-72
2021/10/19 06:39:03;;;;;;;26.25;18.30;;;;;;;9.89;100.00;101675.28;4950733;28;20038;-73
2021/10/19 06:41:30;;;;;;;31.15;19.00;;;;;;;9.89;100.00;101667.44;4935210;28;20039;-72
2021/10/19 06:43:56;;;;;;;31.13;18.83;;;;;;;9.93;100.00;101662.78;4951362;28;20034;-75
2021/10/19 06:46:21;;;;;;;29.10;19.23;;;;;;;9.97;100.00;101660.75;4951628;28;20481;-74
2021/10/19 06:48:46;;;;;;;29.10;18.00;;;;;;;9.96;100.00;101665.16;4949566;28;20091;-75
2021/10/19 06:51:12;;;;;;;31.08;18.75;;;;;;;9.99;100.00;101659.69;4952290;28;20031;-75
2021/10/19 06:53:37;;;;;;;34.00;18.70;;;;;;;10.03;100.00;101662.88;4949090;28;20134;-73
2021/10/19 06:56:03;;;;;;;34.38;20.05;;;;;;;10.02;100.00;101664.69;4945174;28;20069;-75
2021/10/19 06:58:29;;;;;;;31.27;19.38;;;;;;;10.02;100.00;101666.44;4917420;28;20030;-75
2021/10/19 07:00:56;;;;;;;27.27;18.63;;;;;;;10.05;100.00;101667.03;4951728;28;20038;-73
2021/10/19 07:03:24;;;;;;;29.55;19.30;;;;;;;10.04;100.00;101668.03;4954472;28;20034;-74
2021/10/19 07:05:50;;;;;;;27.27;18.67;;;;;;;10.08;100.00;101660.75;4936834;28;20058;-73
2021/10/19 07:08:16;;;;;;;31.23;19.30;;;;;;;10.08;100.00;101651.09;4938218;28;20046;-75
2021/10/19 07:10:42;;;;;;;28.15;18.83;;;;;;;10.14;100.00;101645.34;4965211;28;20039;-74
2021/10/19 07:13:07;;;;;;;31.27;19.15;;;;;;;10.19;100.00;101644.16;4922940;29;20039;-75
2021/10/19 07:15:36;;;;;;;29.70;18.77;;;;;;;10.27;100.00;101647.00;4949468;28;20114;-74
2021/10/19 07:18:07;;;;;;;32.38;19.67;;;;;;;10.27;100.00;101644.41;4938227;28;20046;-75
2021/10/19 07:20:34;;;;;;;33.53;19.70;;;;;;;10.29;100.00;101648.53;4947996;28;20047;-73
2021/10/19 07:23:00;;;;;;;28.20;19.52;;;;;;;10.33;100.00;101657.03;4954371;28;20393;-72
2021/10/19 07:25:28;;;;;;;30.08;19.58;;;;;;;10.34;100.00;101656.09;4938977;28;20066;-72
2021/10/19 07:27:57;;;;;;;30.50;19.10;;;;;;;10.39;100.00;101660.97;4937418;28;20039;-70
2021/10/19 07:30:23;;;;;;;27.45;18.25;;;;;;;10.43;100.00;101662.38;4964998;28;20046;-75
2021/10/19 07:32:48;;;;;;;33.75;19.70;;;;;;;10.50;100.00;101663.56;4954103;28;20026;-74
2021/10/19 07:35:16;;;;;;;27.25;17.77;;;;;;;10.55;100.00;101665.78;4941715;28;20511;-75
2021/10/19 07:37:42;;;;;;;27.13;18.35;;;;;;;10.61;100.00;101668.78;4936752;28;20707;-75
2021/10/19 07:40:09;;;;;;;28.88;18.38;;;;;;;10.71;100.00;101664.44;4948943;28;20034;-75
2021/10/19 07:42:37;;;;;;;28.65;17.73;;;;;;;10.80;100.00;101662.03;4971453;28;20031;-74
2021/10/19 07:45:08;;;;;;;27.48;18.35;;;;;;;10.91;100.00;101664.59;4972010;28;20035;-74
2021/10/19 07:47:38;;;;;;;25.58;17.52;;;;;;;11.02;100.00;101664.56;4949943;28;20031;-76
2021/10/19 07:50:04;;;;;;;26.13;17.85;;;;;;;11.12;100.00;101658.56;4951945;28;20045;-74
2021/10/19 07:52:29;;;;;;;25.13;18.23;;;;;;;11.20;100.00;101656.94;4937266;28;20035;-76
2021/10/19 07:54:55;;;;;;;28.02;18.77;;;;;;;11.33;100.00;101651.47;4932218;29;20043;-70
2021/10/19 07:57:21;;;;;;;28.42;17.85;;;;;;;11.45;100.00;101650.47;4930600;29;20097;-72
2021/10/19 07:59:46;;;;;;;24.75;18.00;;;;;;;11.59;100.00;101643.19;4965077;28;20039;-74
2021/10/19 08:02:12;;;;;;;28.83;17.23;;;;;;;11.64;100.00;101639.22;4954440;28;20105;-76
2021/10/19 08:04:37;;;;;;;28.90;17.67;;;;;;;11.74;100.00;101633.16;4971418;28;20041;-72
2021/10/19 08:07:04;;;;;;;28.40;17.70;;;;;;;11.83;100.00;101635.00;4955898;28;20041;-74
2021/10/19 08:09:30;;;;;;;28.48;17.67;;;;;;;11.90;100.00;101635.31;4959643;28;20027;-72
2021/10/19 08:11:55;;;;;;;28.75;17.85;;;;;;;12.00;100.00;101630.94;4958798;28;20061;-75
2021/10/19 08:14:21;;;;;;;22.23;16.00;;;;;;;12.08;100.00;101637.19;4933420;28;20113;-75
2021/10/19 08:16:46;;;;;;;24.10;16.23;;;;;;;12.17;100.00;101627.66;4935016;28;20617;-73
2021/10/19 08:19:12;;;;;;;24.70;16.63;;;;;;;12.22;100.00;101627.25;4963100;28;20069;-71
2021/10/19 08:21:37;;;;;;;22.60;15.50;;;;;;;12.35;100.00;101634.88;4944414;28;20058;-75
2021/10/19 08:24:03;;;;;;;26.40;16.45;;;;;;;12.35;100.00;101637.50;4926711;28;20038;-72
2021/10/19 08:26:30;;;;;;;23.70;15.43;;;;;;;12.38;100.00;101629.34;4950488;28;20108;-72
2021/10/19 08:28:57;;;;;;;23.52;16.17;;;;;;;12.48;100.00;101629.38;4937800;28;20038;-73
2021/10/19 08:31:22;;;;;;;25.35;15.38;;;;;;;12.44;100.00;101626.16;4933897;28;20400;-73
2021/10/19 08:33:50;;;;;;;22.02;15.57;;;;;;;12.55;100.00;101625.22;4921903;28;20031;-73
2021/10/19 08:36:17;;;;;;;28.48;16.42;;;;;;;12.57;100.00;101624.09;4937592;28;20035;-75
2021/10/19 08:38:43;;;;;;;25.10;15.82;;;;;;;12.57;100.00;101634.63;4954059;28;20034;-73
2021/10/19 08:41:11;;;;;;;23.27;15.13;;;;;;;12.67;100.00;101634.63;4937979;28;20046;-74
2021/10/19 08:43:38;;;;;;;22.02;14.75;;;;;;;12.68;100.00;101635.44;4937772;28;20046;-74
2021/10/19 08:46:09;;;;;;;20.70;14.95;;;;;;;12.73;100.00;101643.78;4941274;28;20461;-74
2021/10/19 08:48:35;;;;;;;21.08;14.88;;;;;;;12.70;100.00;101638.81;4936977;28;20045;-74
2021/10/19 08:51:01;;;;;;;22.63;15.13;;;;;;;12.74;100.00;101643.63;4937516;28;20038;-74
2021/10/19 08:53:27;;;;;;;20.55;14.70;;;;;;;12.72;100.00;101639.50;4953053;28;20046;-74
2021/10/19 08:55:52;;;;;;;21.67;15.35;;;;;;;12.68;100.00;101630.19;4911203;29;20047;-73
2021/10/19 08:58:18;;;;;;;22.98;14.85;;;;;;;12.66;100.00;101628.53;4947143;28;20050;-72
2021/10/19 09:00:44;;;;;;;20.58;14.52;;;;;;;12.73;100.00;101628.78;4953143;28;20031;-75
2021/10/19 09:03:09;;;;;;;24.00;15.10;;;;;;;12.76;100.00;101620.63;4933794;29;20031;-75
2021/10/19 09:05:35;;;;;;;19.80;13.40;;;;;;;12.79;100.00;101619.50;4948671;28;20150;-76
2021/10/19 09:08:07;;;;;;;19.95;13.40;;;;;;;12.81;100.00;101613.16;4952862;28;20086;-74
2021/10/19 09:10:38;;;;;;;22.70;13.98;;;;;;;12.85;100.00;101609.28;4958640;28;20039;-75
2021/10/19 09:13:08;;;;;;;19.75;14.13;;;;;;;12.95;100.00;101617.16;4941558;28;20030;-76
2021/10/19 09:15:39;;;;;;;19.90;14.20;;;;;;;12.94;100.00;101615.50;4942834;28;20070;-74
2021/10/19 09:18:07;;;;;;;19.08;13.75;;;;;;;12.97;100.00;101614.38;4952821;28;20039;-73
2021/10/19 09:20:39;;;;;;;17.42;13.20;;;;;;;13.00;100.00;101625.47;4937408;28;20034;-73
2021/10/19 09:23:05;;;;;;;21.20;13.07;;;;;;;13.00;100.00;101622.00;4963026;28;20063;-75
2021/10/19 09:25:39;;;;;;;23.75;13.10;;;;;;;13.01;100.00;101607.84;4941861;28;20030;-73
2021/10/19 09:28:08;;;;;;;20.90;13.40;;;;;;;13.04;100.00;101615.47;4952876;28;20042;-74
2021/10/19 09:30:38;;;;;;;18.75;12.93;;;;;;;13.01;100.00;101611.31;4971034;28;20074;-73
2021/10/19 09:33:06;;;;;;;23.15;14.25;;;;;;;13.03;100.00;101609.41;4955724;28;20523;-73
2021/10/19 09:35:34;;;;;;;19.30;12.65;;;;;;;13.09;100.00;101607.16;4967948;28;20034;-73
2021/10/19 09:38:05;;;;;;;19.48;12.43;;;;;;;13.12;100.00;101605.06;4970241;28;20504;-74
2021/10/19 09:40:36;;;;;;;20.90;12.90;;;;;;;13.16;100.00;101603.78;4952511;28;20728;-74
2021/10/19 09:43:08;;;;;;;20.83;12.20;;;;;;;13.13;100.00;101592.72;4970556;28;20034;-74
2021/10/19 09:45:34;;;;;;;15.90;11.93;;;;;;;13.17;100.00;101594.94;4968935;28;20035;-73
2021/10/19 09:48:01;;;;;;;17.38;12.65;;;;;;;13.13;100.00;101590.06;4958648;28;20396;-73
2021/10/19 09:50:28;;;;;;;17.58;12.60;;;;;;;13.19;100.00;101587.72;4920434;28;20050;-73
2021/10/19 09:52:55;;;;;;;21.17;13.05;;;;;;;13.28;100.00;101579.91;4953583;28;20039;-74
2021/10/19 09:55:22;;;;;;;18.48;12.68;;;;;;;13.33;100.00;101573.28;4970376;28;20066;-73
2021/10/19 09:57:50;;;;;;;16.08;11.82;;;;;;;13.32;100.00;101578.72;4948075;29;20035;-73
2021/10/19 10:00:16;;;;;;;17.55;12.10;;;;;;;13.40;100.00;101577.00;4964313;28;20527;-73
2021/10/19 10:02:43;;;;;;;16.55;11.88;;;;;;;13.53;100.00;101570.59;4952819;28;20848;-73
2021/10/19 10:05:09;;;;;;;15.23;11.77;;;;;;;13.57;100.00;101564.84;4952733;28;20519;-74
2021/10/19 10:07:36;;;;;;;16.45;11.55;;;;;;;13.66;100.00;101571.06;4951577;28;20039;-72
2021/10/19 10:10:04;;;;;;;14.57;11.13;;;;;;;13.77;100.00;101568.25;4943239;29;20049;-73
2021/10/19 10:12:33;;;;;;;15.98;11.65;;;;;;;13.91;100.00;101563.44;4917237;29;20786;-73
2021/10/19 10:15:00;;;;;;;21.38;11.23;;;;;;;14.01;99.98;101554.50;4945219;28;20030;-73
2021/10/19 10:17:26;;;;;;;16.02;11.70;;;;;;;14.12;99.24;101544.69;4950751;28;20492;-75
2021/10/19 10:19:53;;;;;;;15.48;11.65;;;;;;;14.23;99.14;101536.56;4927572;28;20050;-73
2021/10/19 10:22:29;;;;;;;15.70;11.40;;;;;;;14.30;97.88;101540.25;4954488;28;20155;-73
2021/10/19 10:25:16;;;;;;;14.07;10.95;;;;;;;14.36;98.33;101537.00;4983569;28;20117;-73
2021/10/19 10:27:43;;;;;;;15.35;11.02;;;;;;;14.45;98.87;101535.25;4946658;29;20035;-73
2021/10/19 10:30:20;;;;;;;17.58;10.70;;;;;;;14.51;99.17;101532.00;4944311;28;20048;-74
2021/10/19 10:32:46;;;;;;;16.80;10.80;;;;;;;14.52;99.27;101533.69;4957414;28;20045;-73
2021/10/19 10:35:17;;;;;;;12.70;10.07;;;;;;;14.56;99.15;101534.16;4958052;28;20040;-73
2021/10/19 10:37:48;;;;;;;19.73;11.23;;;;;;;14.57;97.05;101533.25;4933190;28;20423;-73
2021/10/19 10:40:31;;;;;;;14.30;10.80;;;;;;;14.52;98.69;101530.19;4958861;28;20035;-74
2021/10/19 10:42:59;;;;;;;15.23;10.20;;;;;;;14.46;99.41;101525.53;4967874;28;20027;-73
2021/10/19 10:45:34;;;;;;;16.75;10.50;;;;;;;14.54;97.88;101522.94;4973851;28;20061;-74
2021/10/19 10:48:03;;;;;;;17.55;10.05;;;;;;;14.48;99.24;101524.38;4932073;28;20046;-74
2021/10/19 10:50:30;;;;;;;13.80;9.88;;;;;;;14.45;99.12;101522.06;4949372;28;20395;-72
2021/10/19 10:53:06;;;;;;;16.13;10.30;;;;;;;14.47;99.53;101519.28;4932962;29;20417;-75
2021/10/19 10:55:36;;;;;;;13.05;10.20;;;;;;;14.43;100.00;101510.84;4935538;28;20054;-73
2021/10/19 10:58:02;;;;;;;14.50;9.65;;;;;;;14.47;99.81;101506.91;4933859;28;20097;-73
2021/10/19 11:00:27;;;;;;;14.70;10.60;;;;;;;14.47;99.38;101514.81;4933090;28;20565;-74
2021/10/19 11:03:10;;;;;;;16.55;9.52;;;;;;;14.49;99.80;101512.84;4957227;28;20045;-73
2021/10/19 11:05:37;;;;;;;;;;;;;;;14.43;99.88;101510.00;4951513;28;20268;-73